AirNav   Air Wisconsin Up To $57,000 Bonus
 
 1297 users online  

00AA Aero B Ranch Airport
Leoti, Kansas, USA

GOING TO LEOTI?


FAA INFORMATION EFFECTIVE 30 DECEMBER 2021

Location

FAA Identifier: 00AA
Lat/Long: 38-42-14.4800N 101-28-26.0800W
38-42.241333N 101-28.434667W
38.7040222,-101.4739111
(estimated)
Elevation: 3435 ft. / 1047 m
From city: 16 miles NW of LEOTI, KS
Time zone: UTC -6 (UTC -5 during Daylight Saving Time)
Zip code: 67761

Airport Operations

Airport use: Private use. Permission required prior to landing
Activation date: 03/2016
Control tower: no
ARTCC: DENVER CENTER
FSS: WICHITA FLIGHT SERVICE STATION
Attendance: 
Segmented circle: no

Airport Communications

WX AWOS-3 at 5K2 (20 nm SW): 119.075 (620-376-2336)

Nearby radio navigation aids

NDB name  Hdg/Dist  Freq  Var  ID
OAKLEY223/39.338008EOEL --- . .-..

Airport Services

Runway Information

Runway 18/36

Dimensions: 3435 x 60 ft. / 1047 x 18 m
Surface: turf
RUNWAY 18  RUNWAY 36
Elevation: 3433.0 ft.3435.0 ft.
Traffic pattern: leftleft

Airport Ownership and Management from official FAA records

Ownership: Privately-owned
Manager: NATHAN B BROWN
773 W CTY RD A
LEOTI, KS 67861
Phone 620-874-1414
LOVE2FLY@AEROFARM.COM

Airport Operational Statistics

Aircraft based on the field: 1
Single engine airplanes: 1
    

Additional Remarks

FOR CD CTC DENVER ARTCC AT 303-651-4257.

Instrument Procedures

There are no published instrument procedures at 00AA.

Some nearby airports with instrument procedures:

3K7 - Mark Hoard Memorial Airport (16 nm S)
5K2 - Tribune Municipal Airport (20 nm SW)
KTQK - Scott City Municipal Airport (31 nm SE)
KOEL - Oakley Municipal Airport (39 nm NE)
KGLD - Renner Field (Goodland Municipal Airport) (41 nm N)
 
Loc | Ops | Rwys | IFR | FBO | Links
Com | Nav | Svcs | Stats | Notes

AirBoss

 
Aerial photo
No photo
 
Airport distance calculator
Flying to Aero B Ranch Airport? Find the distance to fly.

From to 00AA

Sunrise and sunset
Times for 24-Jan-2022
 Local
(UTC-6)
 Zulu
(UTC)
Morning civil twilight07:3013:30
Sunrise07:5913:59
Sunset17:5723:57
Evening civil twilight18:2600:26

Current date and time
Zulu (UTC)  24-Jan-2022 15:19:09
Local (UTC-6)  24-Jan-2022 09:19:09
 
METAR
KTQK 
31nm SE 
241455Z AUTO 35011KT 10SM CLR 02/M05 A2990 RMK AO2 T00221048
KOEL 
39nm NE 
241455Z AUTO 34007KT 10SM CLR 01/M07 A2989 RMK AO1 T00091072
KGLD 
41nm N 
241453Z AUTO 32008KT 10SM CLR 00/M07 A2991 RMK AO2 SLP143 T00001072 53020
K3K3 
44nm S 
241455Z AUTO 00000KT 10SM CLR M02/M05 A2990 RMK AO2
KCBK 
48nm NE 
241455Z AUTO 30013KT 10SM CLR 01/M06 A2990 RMK AO2 T00091063
KITR 
50nm NW 
241453Z AUTO 31010KT 10SM CLR M01/M08 A2992 RMK AO2 SLP146 T10061078 53017
TAF
KGLD 
41nm N 
241120Z 2412/2512 31010KT P6SM SKC FM241500 33016G25KT P6SM SKC FM242300 36008KT P6SM SCT200 FM250500 11007KT P6SM BKN050 FM251100 11007KT 3SM -SN BR OVC020
NOTAMs
Click for the latest NOTAMs
NOTAMs are issued by the DoD/FAA and will open in a separate window not controlled by AirNav.

 

 
 

Would you like to see your business listed on this page?

 If your business provides an interesting product or service to pilots, flight crews, aircraft, or users of the Aero B Ranch Airport, you should consider listing it here.  To start the listing process, click on the button below
 
Add a business
 

Other Pages about Aero B Ranch Airport

Update a link
 
Copyright © AirNav, LLC. All rights reserved. Privacy Policy  Contact